createdAt,value
2022-09-20T00:01:12.083Z,2.65
2022-09-20T00:03:40.848Z,3.55
2022-09-20T00:06:09.259Z,2.78
2022-09-20T00:08:36.422Z,3.40
2022-09-20T00:11:04.208Z,2.95
2022-09-20T00:13:31.443Z,2.58
2022-09-20T00:15:59.019Z,2.15
2022-09-20T00:18:26.923Z,1.95
2022-09-20T00:20:54.043Z,1.80
2022-09-20T00:23:20.908Z,3.00
2022-09-20T00:25:55.341Z,1.95
2022-09-20T00:28:22.069Z,2.63
2022-09-20T00:30:49.255Z,3.33
2022-09-20T00:33:16.037Z,3.08
2022-09-20T00:35:45.835Z,2.95
2022-09-20T00:38:16.497Z,1.85
2022-09-20T00:40:44.750Z,2.75
2022-09-20T00:43:16.461Z,2.13
2022-09-20T00:45:47.106Z,2.47
2022-09-20T00:48:18.782Z,2.35
2022-09-20T00:50:58.032Z,2.80
2022-09-20T00:53:29.721Z,3.15
2022-09-20T00:55:58.709Z,3.80
2022-09-20T00:58:27.848Z,3.00
2022-09-20T01:00:55.889Z,2.42
2022-09-20T01:03:25.255Z,3.00
2022-09-20T01:05:53.604Z,3.10
2022-09-20T01:08:21.062Z,2.13
2022-09-20T01:10:48.496Z,1.98
2022-09-20T01:13:15.207Z,4.20
2022-09-20T01:15:42.589Z,2.58
2022-09-20T01:18:09.730Z,3.05
2022-09-20T01:20:42.154Z,3.28
2022-09-20T01:23:14.966Z,3.15
2022-09-20T01:26:04.875Z,2.90
2022-09-20T01:28:31.753Z,2.22
2022-09-20T01:31:09.314Z,3.42
2022-09-20T01:33:49.932Z,2.60
2022-09-20T01:36:23.457Z,3.42
2022-09-20T01:38:59.284Z,2.70
2022-09-20T01:41:35.429Z,1.92
2022-09-20T01:44:11.824Z,2.50
2022-09-20T01:46:38.698Z,3.35
2022-09-20T01:49:13.129Z,2.30
2022-09-20T01:52:03.060Z,3.30
2022-09-20T01:54:42.000Z,4.20
2022-09-20T01:57:27.291Z,4.28
2022-09-20T02:00:07.236Z,4.10
2022-09-20T02:03:05.413Z,2.60
2022-09-20T02:05:37.727Z,3.55
2022-09-20T02:08:22.373Z,3.92
2022-09-20T02:10:55.025Z,2.42
2022-09-20T02:13:36.266Z,3.00
2022-09-20T02:16:21.750Z,4.22
2022-09-20T02:19:07.874Z,3.85
2022-09-20T02:22:39.356Z,4.55
2022-09-20T02:27:53.910Z,4.13
2022-09-20T02:30:35.725Z,4.00
2022-09-20T02:33:05.432Z,4.05
2022-09-20T02:35:41.750Z,4.38
2022-09-20T02:38:18.169Z,4.00
2022-09-20T02:41:04.012Z,4.10
2022-09-20T02:43:33.673Z,4.18
2022-09-20T02:46:19.317Z,3.72
2022-09-20T02:48:51.779Z,2.40
2022-09-20T02:51:41.808Z,3.55
2022-09-20T02:54:26.801Z,2.97
2022-09-20T02:57:18.247Z,3.97
2022-09-20T03:00:00.758Z,3.63
2022-09-20T03:02:39.841Z,3.90
2022-09-20T03:05:14.437Z,4.00
2022-09-20T03:07:41.187Z,3.00
2022-09-20T03:10:26.223Z,3.97
2022-09-20T03:13:17.768Z,3.80
2022-09-20T03:15:47.115Z,2.17
2022-09-20T03:18:19.746Z,3.50
2022-09-20T03:21:06.689Z,2.80
2022-09-20T03:24:10.986Z,3.58
2022-09-20T03:26:42.341Z,3.33
2022-09-20T03:29:21.066Z,3.80
2022-09-20T03:32:22.308Z,4.38
2022-09-20T03:37:42.063Z,3.67
2022-09-20T03:41:01.701Z,3.70
2022-09-20T03:43:34.277Z,3.58
2022-09-20T03:46:26.681Z,3.03
2022-09-20T03:49:21.185Z,3.65
2022-09-20T03:52:01.172Z,2.90
2022-09-20T03:54:53.655Z,3.35
2022-09-20T03:57:35.450Z,3.60
2022-09-20T04:00:20.852Z,3.00
2022-09-20T04:03:12.623Z,2.45
2022-09-20T04:05:39.304Z,3.28
2022-09-20T04:08:08.724Z,3.20
2022-09-20T04:10:59.808Z,3.20
2022-09-20T04:13:40.933Z,3.10
2022-09-20T04:18:58.491Z,3.50
2022-09-20T04:21:37.387Z,3.38
2022-09-20T04:24:14.849Z,2.83
2022-09-20T04:26:47.015Z,3.10
2022-09-20T04:29:46.060Z,2.50
2022-09-20T04:32:29.288Z,3.15
2022-09-20T04:35:50.059Z,1.75
2022-09-20T04:38:19.007Z,1.73
2022-09-20T04:40:57.708Z,1.80
2022-09-20T04:43:51.248Z,2.72
2022-09-20T04:46:26.026Z,2.58
2022-09-20T04:49:20.829Z,2.20
2022-09-20T04:52:04.108Z,2.67
2022-09-20T04:55:10.369Z,2.78
2022-09-20T04:58:16.306Z,2.90
2022-09-20T05:00:56.047Z,2.78
2022-09-20T05:04:00.281Z,2.47
2022-09-20T05:06:43.914Z,2.38
2022-09-20T05:09:36.530Z,1.88
2022-09-20T05:12:44.795Z,2.75
2022-09-20T05:15:16.700Z,1.67
2022-09-20T05:18:01.875Z,2.00
2022-09-20T05:20:47.242Z,1.75
2022-09-20T05:23:13.962Z,2.65
2022-09-20T05:26:13.109Z,1.75
2022-09-20T05:28:58.591Z,1.65
2022-09-20T05:31:40.398Z,2.20
2022-09-20T05:34:29.249Z,2.15
2022-09-20T05:37:02.053Z,3.00
2022-09-20T05:39:38.891Z,1.80
2022-09-20T05:42:18.411Z,1.42
2022-09-20T05:45:04.400Z,2.13
2022-09-20T05:48:01.872Z,2.03
2022-09-20T05:50:55.814Z,2.78
2022-09-20T05:53:45.671Z,2.17
2022-09-20T05:56:27.276Z,2.78
2022-09-20T05:58:59.840Z,3.10
2022-09-20T06:01:31.656Z,2.78
2022-09-20T06:04:05.760Z,2.88
2022-09-20T06:07:02.454Z,3.10
2022-09-20T06:09:52.410Z,2.65
2022-09-20T06:12:31.393Z,2.80
2022-09-20T06:15:19.826Z,3.08
2022-09-20T06:18:20.995Z,3.30
2022-09-20T06:20:56.906Z,3.20
2022-09-20T06:23:23.747Z,3.47
2022-09-20T06:25:57.275Z,2.97
2022-09-20T06:28:58.264Z,3.00
2022-09-20T06:31:26.404Z,3.53
2022-09-20T06:34:04.265Z,2.90
2022-09-20T06:36:55.173Z,2.17
2022-09-20T06:39:49.060Z,3.08
2022-09-20T06:42:15.847Z,2.72
2022-09-20T06:44:43.381Z,2.15
2022-09-20T06:47:11.059Z,2.50
2022-09-20T06:49:37.862Z,2.45
2022-09-20T06:52:05.752Z,3.05
2022-09-20T06:54:32.989Z,3.00
2022-09-20T06:57:03.307Z,3.50
2022-09-20T06:59:30.027Z,2.50
2022-09-20T07:01:57.194Z,3.40
2022-09-20T07:04:24.931Z,3.08
2022-09-20T07:06:51.669Z,3.17
2022-09-20T07:09:18.434Z,3.45
2022-09-20T07:11:46.205Z,3.50
2022-09-20T07:14:12.951Z,3.53
2022-09-20T07:16:40.111Z,2.80
2022-09-20T07:19:06.903Z,2.45
2022-09-20T07:21:33.594Z,2.35
2022-09-20T07:24:00.469Z,3.00
2022-09-20T07:26:29.329Z,2.42
2022-09-20T07:28:57.487Z,2.28
2022-09-20T07:31:26.639Z,2.13
2022-09-20T07:33:53.756Z,2.22
2022-09-20T07:36:20.583Z,3.40
2022-09-20T07:38:50.168Z,3.05
2022-09-20T07:41:19.097Z,3.10
2022-09-20T07:43:46.598Z,2.60
2022-09-20T07:46:16.210Z,2.80
2022-09-20T07:48:42.995Z,2.15
2022-09-20T07:51:12.794Z,1.98
2022-09-20T07:53:40.143Z,2.42
2022-09-20T07:56:11.609Z,2.25
2022-09-20T07:58:38.751Z,2.40
2022-09-20T08:01:10.794Z,2.50
2022-09-20T08:03:37.908Z,2.13
2022-09-20T08:06:07.276Z,1.98
2022-09-20T08:08:38.553Z,2.35
2022-09-20T08:11:08.027Z,1.85
2022-09-20T08:16:27.222Z,2.13
2022-09-20T08:19:00.280Z,2.47
2022-09-20T08:21:34.841Z,2.13
2022-09-20T08:24:01.864Z,2.05
2022-09-20T08:26:31.181Z,2.00
2022-09-20T08:29:00.127Z,2.70
2022-09-20T08:31:34.450Z,2.67
2022-09-20T08:34:04.996Z,2.72
2022-09-20T08:36:36.792Z,1.60
2022-09-20T08:41:56.809Z,2.50
2022-09-20T08:44:34.755Z,2.13
2022-09-20T08:47:17.687Z,2.40
2022-09-20T08:49:46.080Z,2.33
2022-09-20T08:52:19.162Z,2.25
2022-09-20T08:54:46.179Z,1.83
2022-09-20T08:57:16.065Z,1.92
2022-09-20T08:59:42.968Z,2.80
2022-09-20T09:02:19.010Z,2.15
2022-09-20T09:04:46.500Z,2.40
2022-09-20T09:07:15.189Z,1.90
2022-09-20T09:09:46.702Z,2.85
2022-09-20T09:12:26.478Z,2.20
2022-09-20T09:14:57.309Z,2.03
2022-09-20T09:17:27.906Z,2.38
2022-09-20T09:19:56.825Z,2.15
2022-09-20T09:22:36.891Z,2.70
2022-09-20T09:25:42.069Z,2.45
2022-09-20T09:28:08.774Z,1.98
2022-09-20T09:30:37.874Z,2.40
2022-09-20T09:33:20.047Z,2.50
2022-09-20T09:36:05.445Z,1.70
2022-09-20T09:38:36.780Z,1.60
2022-09-20T09:41:06.041Z,2.63
2022-09-20T09:43:35.642Z,2.72
2022-09-20T09:46:21.620Z,2.38
2022-09-20T09:49:12.266Z,2.10
2022-09-20T09:51:42.457Z,1.52
2022-09-20T09:54:17.034Z,1.85
2022-09-20T09:57:01.900Z,2.20
2022-09-20T09:59:47.950Z,2.13
2022-09-20T10:02:39.352Z,2.10
2022-09-20T10:05:42.784Z,1.95
2022-09-20T10:08:30.798Z,2.53
2022-09-20T10:11:00.905Z,2.25
2022-09-20T10:13:55.654Z,1.90
2022-09-20T10:16:37.291Z,2.33
2022-09-20T10:19:22.813Z,1.73
2022-09-20T10:22:01.848Z,1.70
2022-09-20T10:24:31.465Z,2.67
2022-09-20T10:27:07.230Z,2.28
2022-09-20T10:30:00.410Z,2.22
2022-09-20T10:33:01.407Z,2.47
2022-09-20T10:35:37.452Z,1.90
2022-09-20T10:38:25.229Z,2.25
2022-09-20T10:41:10.387Z,2.25
2022-09-20T10:44:04.174Z,2.38
2022-09-20T10:46:38.154Z,1.92
2022-09-20T10:49:24.994Z,1.80
2022-09-20T10:52:08.538Z,1.67
2022-09-20T10:54:38.405Z,1.98
2022-09-20T10:57:28.585Z,1.60
2022-09-20T11:00:17.890Z,2.00
2022-09-20T11:02:50.686Z,1.67
2022-09-20T11:05:28.596Z,1.60
2022-09-20T11:08:03.765Z,1.73
2022-09-20T11:10:42.410Z,1.42
2022-09-20T11:13:27.507Z,1.63
2022-09-20T11:16:00.339Z,1.92
2022-09-20T11:18:33.610Z,2.05
2022-09-20T11:21:08.931Z,1.98
2022-09-20T11:24:06.699Z,2.05
2022-09-20T11:26:40.677Z,2.05
2022-09-20T11:29:24.306Z,1.88
2022-09-20T11:31:53.285Z,1.70
2022-09-20T11:34:30.167Z,1.83
2022-09-20T11:37:01.315Z,1.35
2022-09-20T11:39:40.464Z,1.77
2022-09-20T11:42:14.513Z,1.90
2022-09-20T11:44:41.969Z,2.17
2022-09-20T11:47:42.928Z,1.50
2022-09-20T11:50:17.742Z,1.50
2022-09-20T11:53:10.977Z,1.60
2022-09-20T11:55:59.175Z,1.67
2022-09-20T11:58:27.384Z,1.40
2022-09-20T12:00:56.611Z,2.05
2022-09-20T12:03:37.492Z,1.45
2022-09-20T12:06:33.433Z,1.60
2022-09-20T12:09:16.172Z,1.77
2022-09-20T12:11:43.222Z,1.58
2022-09-20T12:14:26.300Z,1.30
2022-09-20T12:16:54.042Z,1.33
2022-09-20T12:19:33.360Z,1.60
2022-09-20T12:22:01.056Z,1.30
2022-09-20T12:24:29.403Z,1.25
2022-09-20T12:26:59.653Z,1.10
2022-09-20T12:29:35.209Z,1.40
2022-09-20T12:32:03.341Z,1.05
2022-09-20T12:34:36.140Z,1.50
2022-09-20T12:37:04.741Z,1.50
2022-09-20T12:39:36.115Z,1.15
2022-09-20T12:42:12.002Z,1.20
2022-09-20T12:45:00.421Z,1.67
2022-09-20T12:47:30.005Z,1.40
2022-09-20T12:50:17.002Z,1.80
2022-09-20T12:53:02.653Z,1.15
2022-09-20T12:55:56.599Z,1.17
2022-09-20T12:58:26.263Z,1.67
2022-09-20T13:01:14.477Z,1.52
2022-09-20T13:03:43.550Z,1.55
2022-09-20T13:06:10.205Z,1.23
2022-09-20T13:08:48.029Z,1.40
2022-09-20T13:11:21.119Z,1.55
2022-09-20T13:13:50.657Z,1.20
2022-09-20T13:16:27.534Z,1.50
2022-09-20T13:19:12.739Z,1.48
2022-09-20T13:21:41.809Z,1.70
2022-09-20T13:24:15.591Z,1.55
2022-09-20T13:26:45.768Z,1.45
2022-09-20T13:29:35.129Z,1.85
2022-09-20T13:32:27.875Z,1.80
2022-09-20T13:35:12.698Z,1.60
2022-09-20T13:37:53.185Z,1.70
2022-09-20T13:40:38.542Z,1.30
2022-09-20T13:43:23.243Z,1.77
2022-09-20T13:45:57.601Z,1.40
2022-09-20T13:48:26.490Z,2.03
2022-09-20T13:50:54.057Z,2.08
2022-09-20T13:53:40.691Z,1.70
2022-09-20T13:56:29.888Z,1.80
2022-09-20T13:58:59.038Z,2.08
2022-09-20T14:01:34.461Z,2.97
2022-09-20T14:04:13.799Z,2.03
2022-09-20T14:06:40.973Z,1.98
2022-09-20T14:09:11.304Z,2.10
2022-09-20T14:11:38.670Z,1.88
2022-09-20T14:14:05.637Z,2.67
2022-09-20T14:16:34.972Z,1.63
2022-09-20T14:19:02.898Z,2.08
2022-09-20T14:21:32.772Z,1.85
2022-09-20T14:24:04.934Z,2.30
2022-09-20T14:26:39.886Z,1.60
2022-09-20T14:29:34.588Z,1.77
2022-09-20T14:32:07.410Z,2.20
2022-09-20T14:34:38.938Z,2.03
2022-09-20T14:37:11.390Z,2.60
2022-09-20T14:39:47.970Z,2.05
2022-09-20T14:42:30.599Z,2.33
2022-09-20T14:44:57.630Z,2.35
2022-09-20T14:47:38.702Z,2.40
2022-09-20T14:50:24.193Z,1.98
2022-09-20T14:53:11.255Z,2.10
2022-09-20T14:56:10.159Z,2.20
2022-09-20T14:59:11.027Z,2.10
2022-09-20T15:01:41.158Z,2.80
2022-09-20T15:04:23.053Z,1.65
2022-09-20T15:06:51.280Z,1.73
2022-09-20T15:09:18.976Z,2.30
2022-09-20T15:11:45.721Z,2.22
2022-09-20T15:14:12.508Z,2.50
2022-09-20T15:16:39.374Z,2.13
2022-09-20T15:19:08.094Z,2.20
2022-09-20T15:21:34.965Z,1.92
2022-09-20T15:24:01.970Z,2.42
2022-09-20T15:26:29.405Z,2.10
2022-09-20T15:28:56.215Z,2.50
2022-09-20T15:31:23.176Z,1.90
2022-09-20T15:33:50.044Z,1.98
2022-09-20T15:36:17.218Z,2.08
2022-09-20T15:38:44.037Z,2.40
2022-09-20T15:41:10.801Z,1.98
2022-09-20T15:43:37.699Z,1.90
2022-09-20T15:46:19.776Z,1.98
2022-09-20T15:48:46.865Z,2.03
2022-09-20T15:51:15.231Z,1.98
2022-09-20T15:53:48.693Z,1.80
2022-09-20T15:56:18.050Z,1.95
2022-09-20T16:11:58.862Z,1.98
2022-09-20T16:14:25.913Z,1.77
2022-09-20T16:16:52.660Z,1.70
2022-09-20T16:19:23.754Z,2.10
2022-09-20T16:21:58.215Z,1.90
2022-09-20T16:24:27.872Z,2.20
2022-09-20T16:26:54.868Z,1.88
2022-09-20T16:29:25.925Z,2.10
2022-09-20T16:31:54.062Z,2.05
2022-09-20T16:34:32.520Z,2.20
2022-09-20T16:37:08.878Z,2.13
2022-09-20T16:39:35.739Z,1.95
2022-09-20T16:42:04.870Z,1.98
2022-09-20T16:44:36.608Z,1.92
2022-09-20T16:47:08.870Z,2.20
2022-09-20T16:49:36.481Z,1.63
2022-09-20T16:52:07.062Z,2.13
2022-09-20T16:54:34.130Z,2.13
2022-09-20T16:57:01.314Z,2.28
2022-09-20T16:59:28.349Z,2.10
2022-09-20T17:01:55.141Z,1.95
2022-09-20T17:04:22.056Z,2.28
2022-09-20T17:06:49.591Z,1.98
2022-09-20T17:09:16.690Z,2.10
2022-09-20T17:11:49.330Z,1.90
2022-09-20T17:14:18.598Z,1.80
2022-09-20T17:16:49.484Z,2.13
2022-09-20T17:21:50.200Z,2.30
2022-09-20T17:24:19.712Z,2.40
2022-09-20T17:26:46.519Z,2.20
2022-09-20T17:29:16.206Z,2.70
2022-09-20T17:31:48.804Z,2.40
2022-09-20T17:34:21.567Z,2.38
2022-09-20T17:36:49.226Z,2.47
2022-09-20T17:39:16.637Z,2.63
2022-09-20T17:41:48.017Z,2.80
2022-09-20T17:44:15.664Z,2.55
2022-09-20T17:46:46.820Z,2.80
2022-09-20T17:49:16.779Z,2.50
2022-09-20T17:51:54.860Z,2.42
2022-09-20T17:54:23.261Z,1.95
2022-09-20T17:56:51.799Z,2.42
2022-09-20T17:59:19.495Z,2.33
2022-09-20T18:01:48.283Z,2.50
2022-09-20T18:04:15.924Z,1.83
2022-09-20T18:06:48.075Z,2.25
2022-09-20T18:09:16.596Z,2.35
2022-09-20T18:11:49.710Z,1.75
2022-09-20T18:14:23.217Z,2.30
2022-09-20T18:17:00.042Z,2.13
2022-09-20T18:19:33.877Z,2.13
2022-09-20T18:22:04.288Z,2.38
2022-09-20T18:24:31.635Z,2.90
2022-09-20T18:27:00.646Z,2.45
2022-09-20T18:29:28.727Z,2.50
2022-09-20T18:31:55.669Z,2.30
2022-09-20T18:34:31.241Z,2.72
2022-09-20T18:36:59.145Z,2.22
2022-09-20T18:39:27.954Z,2.42
2022-09-20T18:41:55.342Z,1.90
2022-09-20T18:44:22.874Z,2.17
2022-09-20T18:46:53.087Z,2.13
2022-09-20T18:49:21.540Z,2.30
2022-09-20T18:51:49.338Z,2.28
2022-09-20T18:54:16.730Z,2.45
2022-09-20T18:56:48.141Z,2.30
2022-09-20T18:59:20.337Z,1.90
2022-09-20T19:01:50.075Z,2.00
2022-09-20T19:04:58.519Z,1.95
2022-09-20T19:07:28.099Z,2.35
2022-09-20T19:10:06.866Z,2.17
2022-09-20T19:12:48.785Z,2.28
2022-09-20T19:15:22.702Z,1.88
2022-09-20T19:17:54.307Z,2.45
2022-09-20T19:20:34.029Z,2.15
2022-09-20T19:23:19.793Z,1.67
2022-09-20T19:25:47.540Z,1.98
2022-09-20T19:28:15.906Z,1.70
2022-09-20T19:30:43.105Z,1.63
2022-09-20T19:33:16.429Z,1.85
2022-09-20T19:35:49.489Z,1.92
2022-09-20T19:38:41.408Z,2.10
2022-09-20T19:41:30.559Z,2.35
2022-09-20T19:44:21.956Z,1.50
2022-09-20T19:47:20.035Z,1.70
2022-09-20T19:49:56.983Z,2.20
2022-09-20T19:52:24.262Z,1.90
2022-09-20T19:54:52.013Z,2.42
2022-09-20T19:57:21.857Z,2.08
2022-09-20T19:59:49.731Z,1.90
2022-09-20T20:02:17.550Z,2.20
2022-09-20T20:04:44.831Z,2.45
2022-09-20T20:07:40.889Z,2.08
2022-09-20T20:10:32.100Z,1.95
2022-09-20T20:16:12.377Z,2.38
2022-09-20T20:18:39.074Z,2.08
2022-09-20T20:21:18.203Z,2.47
2022-09-20T20:24:05.002Z,2.45
2022-09-20T20:26:31.974Z,2.50
2022-09-20T20:28:58.674Z,2.40
2022-09-20T20:31:25.492Z,2.63
2022-09-20T20:33:52.611Z,2.40
2022-09-20T20:36:19.355Z,2.40
2022-09-20T20:38:49.969Z,2.55
2022-09-20T20:41:21.760Z,2.20
2022-09-20T20:43:53.287Z,2.20
2022-09-20T20:46:20.136Z,2.38
2022-09-20T20:48:50.202Z,2.42
2022-09-20T20:51:19.079Z,2.50
2022-09-20T20:53:48.128Z,2.33
2022-09-20T20:56:17.859Z,2.30
2022-09-20T20:58:45.762Z,2.05
2022-09-20T21:01:21.316Z,2.80
2022-09-20T21:03:52.571Z,2.38
2022-09-20T21:06:20.521Z,1.80
2022-09-20T21:08:49.801Z,2.50
2022-09-20T21:11:25.316Z,2.20
2022-09-20T21:13:53.037Z,2.45
2022-09-20T21:16:22.914Z,2.58
2022-09-20T21:18:51.001Z,2.78
2022-09-20T21:21:22.655Z,2.03
2022-09-20T21:23:51.914Z,2.22
2022-09-20T21:26:19.562Z,2.83
2022-09-20T21:28:51.462Z,2.60
2022-09-20T21:31:19.247Z,2.60
2022-09-20T21:33:46.051Z,2.40
2022-09-20T21:36:14.648Z,2.38
2022-09-20T21:38:42.440Z,2.88
2022-09-20T21:41:09.138Z,2.40
2022-09-20T21:43:36.418Z,3.20
2022-09-20T21:46:04.042Z,3.05
2022-09-20T21:48:30.895Z,3.03
2022-09-20T21:51:02.549Z,2.35
2022-09-20T21:53:29.860Z,2.90
2022-09-20T21:56:00.598Z,2.63
2022-09-20T21:58:28.051Z,2.50
2022-09-20T22:01:04.448Z,2.90
2022-09-20T22:03:32.138Z,2.67
2022-09-20T22:06:08.748Z,2.67
2022-09-20T22:08:42.219Z,2.80
2022-09-20T22:11:15.047Z,2.58
2022-09-20T22:13:50.028Z,2.78
2022-09-20T22:16:20.897Z,2.70
2022-09-20T22:18:49.867Z,2.47
2022-09-20T22:21:19.247Z,2.83
2022-09-20T22:23:52.196Z,2.33
2022-09-20T22:26:21.789Z,2.30
2022-09-20T22:28:51.950Z,2.35
2022-09-20T22:31:23.920Z,2.08
2022-09-20T22:33:55.623Z,2.22
2022-09-20T22:36:27.423Z,2.05
2022-09-20T22:38:54.692Z,3.03
2022-09-20T22:41:21.915Z,2.92
2022-09-20T22:43:49.022Z,2.72
2022-09-20T22:46:18.440Z,2.58
2022-09-20T22:48:45.635Z,2.58
2022-09-20T22:51:15.135Z,2.60
2022-09-20T22:53:42.264Z,2.63
2022-09-20T22:56:12.163Z,2.72
2022-09-20T22:58:44.361Z,2.67
2022-09-20T23:01:15.340Z,2.72
2022-09-20T23:06:14.239Z,2.53
2022-09-20T23:08:41.482Z,2.35
2022-09-20T23:11:08.883Z,3.10
2022-09-20T23:13:36.588Z,3.10
2022-09-20T23:16:20.246Z,2.22
2022-09-20T23:18:48.134Z,1.65
2022-09-20T23:21:15.284Z,2.25
2022-09-20T23:23:45.266Z,2.65
2022-09-20T23:26:18.856Z,2.30
2022-09-20T23:28:51.715Z,2.85
2022-09-20T23:31:19.005Z,2.53
2022-09-20T23:33:53.638Z,2.22
2022-09-20T23:36:21.083Z,2.00
2022-09-20T23:38:48.481Z,2.03
2022-09-20T23:41:18.320Z,2.17
2022-09-20T23:43:45.349Z,2.38
2022-09-20T23:46:13.839Z,2.33
2022-09-20T23:48:44.391Z,2.63
2022-09-20T23:51:13.411Z,2.67
2022-09-20T23:53:40.542Z,2.13
2022-09-20T23:56:07.663Z,2.45
2022-09-20T23:58:36.508Z,2.42
